createdAt,value
2022-08-22T08:08:04.221Z,19.31
2022-08-22T08:10:39.782Z,19.40
2022-08-22T08:13:13.675Z,19.46
2022-08-22T08:15:46.190Z,19.45
2022-08-22T08:18:22.187Z,19.49
2022-08-22T08:20:53.841Z,19.53
2022-08-22T08:23:25.383Z,19.61
2022-08-22T08:26:01.183Z,19.63
2022-08-22T08:28:35.774Z,19.64
2022-08-22T08:31:10.970Z,19.60
2022-08-22T08:33:42.782Z,19.59
2022-08-22T08:36:27.460Z,19.59
2022-08-22T08:39:10.623Z,19.55
2022-08-22T08:42:01.553Z,19.52
2022-08-22T08:44:57.222Z,19.53
2022-08-22T08:47:44.922Z,19.56
2022-08-22T08:50:29.522Z,19.56
2022-08-22T08:53:24.794Z,19.60
2022-08-22T08:56:01.949Z,19.52
2022-08-22T08:58:41.433Z,19.49
2022-08-22T09:01:38.214Z,19.46
2022-08-22T09:04:32.483Z,19.44
2022-08-22T09:07:28.229Z,19.43
2022-08-22T09:10:16.763Z,19.46
2022-08-22T09:13:12.213Z,19.49
2022-08-22T09:16:03.541Z,19.50
2022-08-22T09:19:02.452Z,19.59
2022-08-22T09:21:56.726Z,19.69
2022-08-22T09:24:57.074Z,19.75
2022-08-22T09:27:36.244Z,19.82
2022-08-22T09:30:13.062Z,19.83
2022-08-22T09:32:49.165Z,19.87
2022-08-22T09:35:27.471Z,19.94
2022-08-22T09:38:27.845Z,20.06
2022-08-22T09:41:03.023Z,20.22
2022-08-22T09:43:39.617Z,20.41
2022-08-22T09:46:20.204Z,20.62
2022-08-22T09:49:05.604Z,20.58
2022-08-22T09:51:43.482Z,20.56
2022-08-22T09:54:31.356Z,20.59
2022-08-22T09:57:24.498Z,20.53
2022-08-22T10:00:14.898Z,20.44
2022-08-22T10:02:59.400Z,20.44
2022-08-22T10:05:44.244Z,20.53
2022-08-22T10:08:33.155Z,20.61
2022-08-22T10:11:19.579Z,20.69
2022-08-22T10:14:02.545Z,20.75
2022-08-22T10:16:44.295Z,20.79
2022-08-22T10:19:23.415Z,20.81
2022-08-22T10:22:18.982Z,20.81
2022-08-22T10:24:58.578Z,20.78
2022-08-22T10:27:42.875Z,20.81
2022-08-22T10:30:18.652Z,20.90
2022-08-22T10:32:52.989Z,21.00
2022-08-22T10:35:33.643Z,21.17
2022-08-22T10:38:10.657Z,21.43
2022-08-22T10:40:48.263Z,21.48
2022-08-22T10:43:28.762Z,21.50
2022-08-22T10:46:12.513Z,21.56
2022-08-22T10:48:49.820Z,21.66
2022-08-22T10:51:28.673Z,21.73
2022-08-22T10:54:10.276Z,21.85
2022-08-22T10:56:45.660Z,22.10
2022-08-22T10:59:27.906Z,22.34
2022-08-22T11:02:12.551Z,22.66
2022-08-22T11:05:03.913Z,22.99
2022-08-22T11:07:48.712Z,23.07
2022-08-22T11:10:29.764Z,23.13
2022-08-22T11:13:14.517Z,23.05
2022-08-22T11:16:04.528Z,23.18
2022-08-22T11:19:02.925Z,23.54
2022-08-22T11:21:47.634Z,23.71
2022-08-22T11:25:00.223Z,23.66
2022-08-22T11:27:42.218Z,23.70
2022-08-22T11:30:18.763Z,23.69
2022-08-22T11:33:20.153Z,23.58
2022-08-22T11:35:57.077Z,23.51
2022-08-22T11:38:37.266Z,23.50
2022-08-22T11:41:14.315Z,23.37
2022-08-22T11:43:57.638Z,23.22
2022-08-22T11:46:31.672Z,23.11
2022-08-22T11:49:27.040Z,23.02
2022-08-22T11:52:14.347Z,23.01
2022-08-22T11:55:17.248Z,23.02
2022-08-22T11:57:50.467Z,22.99
2022-08-22T12:00:30.915Z,23.02
2022-08-22T12:03:25.213Z,23.09
2022-08-22T12:06:02.051Z,23.16
2022-08-22T12:08:52.427Z,23.41
2022-08-22T12:11:26.734Z,23.71
2022-08-22T12:14:06.500Z,23.91
2022-08-22T12:16:45.166Z,23.99
2022-08-22T12:19:24.082Z,24.08
2022-08-22T12:22:25.414Z,24.16
2022-08-22T12:25:14.489Z,24.27
2022-08-22T12:28:01.009Z,24.24
2022-08-22T12:30:38.592Z,24.39
2022-08-22T12:33:33.072Z,24.52
2022-08-22T12:36:40.296Z,24.60
2022-08-22T12:39:27.714Z,24.59
2022-08-22T12:42:25.828Z,24.60
2022-08-22T12:45:14.020Z,24.91
2022-08-22T12:48:00.369Z,25.10
2022-08-22T12:50:39.936Z,25.15
2022-08-22T12:53:38.824Z,25.23
2022-08-22T12:56:18.127Z,25.37
2022-08-22T12:59:22.544Z,25.83
2022-08-22T13:01:55.116Z,26.02
2022-08-22T13:04:32.555Z,26.03
2022-08-22T13:07:09.000Z,25.82
2022-08-22T13:09:40.137Z,25.75
2022-08-22T13:12:26.476Z,25.65
2022-08-22T13:15:02.536Z,25.58
2022-08-22T13:17:32.259Z,25.76
2022-08-22T13:20:13.506Z,25.61
2022-08-22T13:22:45.593Z,25.55
2022-08-22T13:25:26.492Z,25.50
2022-08-22T13:27:59.074Z,25.50
2022-08-22T13:30:37.519Z,25.43
2022-08-22T13:33:11.021Z,25.26
2022-08-22T13:35:52.334Z,25.17
2022-08-22T13:38:27.089Z,25.03
2022-08-22T13:40:58.971Z,24.92
2022-08-22T13:43:31.531Z,24.76
2022-08-22T13:46:03.428Z,24.61
2022-08-22T13:48:49.474Z,24.55
2022-08-22T13:51:32.561Z,24.49
2022-08-22T13:54:21.556Z,24.38
2022-08-22T13:56:56.790Z,24.21
2022-08-22T13:59:54.215Z,24.07
2022-08-22T14:02:43.477Z,23.89
2022-08-22T14:05:18.503Z,23.73
2022-08-22T14:07:58.530Z,23.56
2022-08-22T14:10:34.566Z,23.43
2022-08-22T14:13:28.800Z,23.37
2022-08-22T14:16:02.143Z,23.22
2022-08-22T14:18:45.607Z,23.12
2022-08-22T14:21:28.830Z,23.05
2022-08-22T14:24:18.846Z,22.97
2022-08-22T14:27:05.712Z,22.98
2022-08-22T14:29:45.146Z,22.95
2022-08-22T14:32:43.673Z,22.94
2022-08-22T14:35:37.474Z,22.94
2022-08-22T14:38:27.140Z,22.94
2022-08-22T14:41:03.228Z,22.92
2022-08-22T14:43:50.705Z,22.86
2022-08-22T14:46:28.346Z,22.80
2022-08-22T14:49:28.725Z,22.82
2022-08-22T14:52:09.020Z,22.83
2022-08-22T14:54:39.155Z,22.78
2022-08-22T14:57:20.168Z,22.74
2022-08-22T14:59:53.065Z,22.71
2022-08-22T15:02:29.754Z,22.68
2022-08-22T15:05:05.579Z,22.65
2022-08-22T15:07:37.690Z,22.60
2022-08-22T15:10:11.860Z,22.61
2022-08-22T15:12:50.053Z,22.62
2022-08-22T15:15:32.725Z,22.62
2022-08-22T15:18:35.092Z,22.65
2022-08-22T15:21:08.776Z,22.55
2022-08-22T15:23:45.000Z,22.73
2022-08-22T15:26:24.568Z,22.76
2022-08-22T15:29:07.884Z,22.75
2022-08-22T15:31:41.501Z,22.77
2022-08-22T15:34:24.322Z,22.79
2022-08-22T15:37:14.266Z,22.80
2022-08-22T15:40:11.828Z,22.81
2022-08-22T15:42:45.449Z,22.83
2022-08-22T15:45:31.293Z,22.84
2022-08-22T15:48:06.325Z,22.82
2022-08-22T15:50:41.862Z,22.74
2022-08-22T15:53:15.694Z,22.70
2022-08-22T15:56:19.915Z,22.68
2022-08-22T15:58:56.002Z,22.68
2022-08-22T16:01:28.120Z,22.65
2022-08-22T16:04:03.734Z,22.61
2022-08-22T16:06:44.725Z,22.60
2022-08-22T16:09:37.027Z,22.60
2022-08-22T16:12:13.564Z,22.55
2022-08-22T16:14:54.052Z,22.48
2022-08-22T16:17:44.105Z,22.41
2022-08-22T16:20:33.958Z,22.33
2022-08-22T16:23:09.816Z,22.31
2022-08-22T16:26:00.213Z,22.28
2022-08-22T16:28:56.987Z,22.27
2022-08-22T16:31:29.127Z,22.29
2022-08-22T16:34:21.094Z,22.24
2022-08-22T16:37:13.843Z,22.22
2022-08-22T16:39:46.201Z,22.20
2022-08-22T16:42:28.153Z,22.17
2022-08-22T16:45:12.674Z,22.15
2022-08-22T16:47:54.523Z,22.10
2022-08-22T16:50:37.213Z,22.08
2022-08-22T16:53:14.263Z,22.05
2022-08-22T16:56:07.977Z,22.06
2022-08-22T16:59:22.025Z,22.01
2022-08-22T17:02:13.260Z,21.88
2022-08-22T17:04:53.136Z,21.79
2022-08-22T17:07:35.945Z,21.75
2022-08-22T17:10:34.845Z,21.72
2022-08-22T17:13:26.499Z,21.73
2022-08-22T17:16:10.375Z,21.71
2022-08-22T17:18:57.282Z,21.64
2022-08-22T17:21:30.563Z,21.58
2022-08-22T17:24:31.710Z,21.55
2022-08-22T17:27:14.494Z,21.45
2022-08-22T17:30:02.839Z,21.41
2022-08-22T17:32:41.773Z,21.36
2022-08-22T17:35:27.317Z,21.38
2022-08-22T17:38:11.033Z,21.38
2022-08-22T17:40:54.878Z,21.38
2022-08-22T17:43:48.692Z,21.35
2022-08-22T17:46:35.091Z,21.27
2022-08-22T17:49:17.047Z,21.22
2022-08-22T17:51:53.153Z,21.16
2022-08-22T17:54:29.635Z,21.09
2022-08-22T17:57:06.356Z,21.01
2022-08-22T17:59:47.152Z,20.95
2022-08-22T18:02:20.797Z,20.89
2022-08-22T18:04:59.462Z,20.91
2022-08-22T18:07:47.117Z,20.96
2022-08-22T18:10:25.989Z,20.96
2022-08-22T18:13:07.084Z,20.99
2022-08-22T18:15:46.633Z,21.00
2022-08-22T18:18:30.094Z,20.99
2022-08-22T18:21:05.520Z,20.99
2022-08-22T18:23:40.874Z,20.98
2022-08-22T18:26:23.902Z,20.96
2022-08-22T18:28:59.235Z,20.94
2022-08-22T18:31:40.153Z,20.96
2022-08-22T18:34:20.495Z,20.94
2022-08-22T18:37:00.043Z,20.95
2022-08-22T18:39:33.409Z,20.96
2022-08-22T18:42:10.829Z,20.95
2022-08-22T18:44:45.478Z,20.93
2022-08-22T18:47:18.325Z,20.94
2022-08-22T18:49:54.516Z,20.91
2022-08-22T18:52:35.688Z,20.88
2022-08-22T18:55:33.027Z,20.86
2022-08-22T18:58:43.342Z,20.81
2022-08-22T19:01:43.984Z,20.76
2022-08-22T19:04:43.057Z,20.74
2022-08-22T19:07:51.447Z,20.73
2022-08-22T19:10:35.190Z,20.66
2022-08-22T19:13:37.644Z,20.61
2022-08-22T19:16:17.719Z,20.48
2022-08-22T19:18:54.467Z,20.49
2022-08-22T19:21:37.729Z,20.49
2022-08-22T19:24:09.285Z,20.44
2022-08-22T19:26:44.255Z,20.41
2022-08-22T19:29:38.534Z,20.37
2022-08-22T19:32:12.890Z,20.33
2022-08-22T19:34:47.687Z,20.27
2022-08-22T19:37:30.523Z,20.26
2022-08-22T19:40:05.981Z,20.24
2022-08-22T19:42:42.404Z,20.22
2022-08-22T19:45:26.834Z,20.23
2022-08-22T19:48:00.584Z,20.22
2022-08-22T19:50:37.065Z,20.20
2022-08-22T19:53:25.289Z,20.17
2022-08-22T19:56:08.756Z,20.14
2022-08-22T19:59:02.195Z,20.07
2022-08-22T20:01:44.779Z,20.06
2022-08-22T20:04:35.704Z,20.04
2022-08-22T20:07:15.356Z,20.02
2022-08-22T20:09:51.738Z,20.02
2022-08-22T20:12:32.445Z,20.02
2022-08-22T20:15:13.585Z,19.98
2022-08-22T20:18:11.232Z,19.96
2022-08-22T20:20:39.757Z,19.93
2022-08-22T20:23:17.125Z,19.91
2022-08-22T20:25:50.451Z,19.87
2022-08-22T20:28:35.882Z,19.85
2022-08-22T20:31:10.818Z,19.85
2022-08-22T20:33:43.811Z,19.88
2022-08-22T20:36:27.692Z,19.89
2022-08-22T20:39:03.108Z,19.90
2022-08-22T20:41:36.991Z,19.93
2022-08-22T20:44:13.694Z,19.95
2022-08-22T20:46:56.106Z,19.92
2022-08-22T20:49:28.904Z,19.93
2022-08-22T20:52:00.218Z,19.85
2022-08-22T20:54:33.156Z,19.89
2022-08-22T20:57:03.938Z,19.88
2022-08-22T20:59:37.300Z,19.88
2022-08-22T21:02:15.906Z,19.88
2022-08-22T21:04:52.912Z,19.86
2022-08-22T21:07:24.968Z,19.80
2022-08-22T21:10:12.319Z,19.74
2022-08-22T21:12:41.225Z,19.71
2022-08-22T21:15:10.709Z,19.65
2022-08-22T21:17:39.312Z,19.66
2022-08-22T21:20:21.658Z,19.66
2022-08-22T21:22:50.964Z,19.70
2022-08-22T21:25:21.206Z,19.74
2022-08-22T21:27:50.149Z,19.68
2022-08-22T21:30:26.775Z,19.66
2022-08-22T21:32:56.620Z,19.68
2022-08-22T21:35:31.375Z,19.68
2022-08-22T21:38:01.561Z,19.68
2022-08-22T21:40:36.879Z,19.68
2022-08-22T21:43:09.664Z,19.66
2022-08-22T21:45:44.327Z,19.63
2022-08-22T21:48:34.505Z,19.64
2022-08-22T21:51:25.057Z,19.64
2022-08-22T21:54:24.633Z,19.67
2022-08-22T21:56:56.874Z,19.70
2022-08-22T21:59:51.169Z,19.74
2022-08-22T22:02:31.090Z,19.73
2022-08-22T22:05:01.569Z,19.76
2022-08-22T22:07:31.590Z,19.76
2022-08-22T22:10:00.357Z,19.72
2022-08-22T22:12:30.451Z,19.70
2022-08-22T22:14:59.217Z,19.69
2022-08-22T22:17:28.288Z,19.69
2022-08-22T22:19:57.167Z,19.72
2022-08-22T22:22:25.705Z,19.73
2022-08-22T22:24:54.299Z,19.74
2022-08-22T22:27:22.886Z,19.76
2022-08-22T22:29:53.059Z,19.72
2022-08-22T22:32:21.707Z,19.74
2022-08-22T22:34:50.437Z,19.74
2022-08-22T22:37:19.280Z,19.72
2022-08-22T22:39:48.024Z,19.68
2022-08-22T22:42:16.697Z,19.65
2022-08-22T22:44:47.491Z,19.62
2022-08-22T22:47:18.266Z,19.54
2022-08-22T22:49:47.291Z,19.47
2022-08-22T22:52:16.054Z,19.49
2022-08-22T22:54:46.145Z,19.52
2022-08-22T22:57:25.326Z,19.53
2022-08-22T22:59:54.851Z,19.54
2022-08-22T23:02:25.361Z,19.54
2022-08-22T23:04:56.661Z,19.53
2022-08-22T23:07:28.805Z,19.49
2022-08-22T23:10:05.362Z,19.49
2022-08-22T23:12:36.437Z,19.48
2022-08-22T23:15:05.617Z,19.43
2022-08-22T23:17:35.969Z,19.41
2022-08-22T23:20:05.883Z,19.43
2022-08-22T23:22:35.097Z,19.47
2022-08-22T23:25:03.935Z,19.47
2022-08-22T23:27:32.628Z,19.46
2022-08-22T23:30:02.356Z,19.47
2022-08-22T23:32:30.997Z,19.50
2022-08-22T23:35:01.028Z,19.55
2022-08-22T23:37:29.627Z,19.56
2022-08-22T23:39:58.313Z,19.54
2022-08-22T23:42:27.347Z,19.56
2022-08-22T23:44:55.925Z,19.59
2022-08-22T23:47:24.960Z,19.57
2022-08-22T23:49:53.859Z,19.54
2022-08-22T23:52:23.897Z,19.59
2022-08-22T23:54:54.403Z,19.64
2022-08-22T23:57:27.516Z,19.63
2022-08-22T23:59:57.286Z,19.62
